Timeline UpdatesTrip UpdatesNews PostsPvt PostsTravel TipsAdmin PostsConv PostsFollowed PostsChat RequestsBlog PostsPNR Posts

Disclaimer
Search
 
 
Fri Sep 19, 2014 03:16:13 ISTHomeTrainsΣChainsAtlasPNRForumGalleryNewsFAQTripsMembersLoginFeedback
No Recent News for this Train
Other Trains in the News **new
Latest...
..
Tue Jul 15, 2014 (07:57PM)
⇐ Return Journey: Train# 12289

12290/Nagpur - Mumbai CST Duronto Express

NO Time-Table Change.
Sep 16 (1:15AM)
Change Departure Station:
Change Arrival Station:
Post a Train Travel TipPost a Train Travel Tip **new
Post a Comment/Question/Picture/VideoPost a Comment/Question/Picture/Video
Inaugural Run
Mon Nov 23, 2009
Pantry/Catering
✕ NO Pantry Car
✕ NO Catering
RSA - Rake Sharing
No RSA. Hybrid LHB Rake.
Rake/Coach Composition
LOCO-SLR-H1-A1-A2-A3-B1-B2-B3-B4-S1-S2-S3-S4-S5-S6-S7-S8-S9-SE1-SLR
Loco
NGP-IGP: AJNI WAP-7 IGP-CSTM: KYN WCAM-3.
News    PNR    Forum    Time-Table    Availability    Fare Chart    Map    Arr/Dep History    Trips    Gallery    ΣChains    X/O    Timeline    
Travel Time: 11h 15m    2 halts    Distance: 835 km    Avg Speed: 74 km/hr
Type: Duronto
Zone: CR/Central
Departs @ 20:40
Platform# 8
SMTWTFS
Nagpur Junction/NGP 
Arrives @ 07:55 +1 night
Platform# 18
SMTWTFS
Mumbai CST/CSTM 

2 halts. 123 intermediate Stations between Nagpur Junction and Mumbai CST

Hide intermediate Stations  

#CodeStation NameX/OArrivesAvgDepartsAvgHaltPFDay#KmSpeedElevZoneAddress
1NGPNagpur Junction (8)»  -20:40-810.084314mCRNagpur 440001, Maharashtra
1.1MIBNagpur Moti Bagh (1)  20:41-20:41-  10.8 84309mCRNagpur, Maharashtra
1.2AJNIAjni (3)X  20:42-20:42-  13.0 84310mCRNagpur 440003, Maharashtra
1.3KRIKhapri (2)X  20:49-20:49-  112.3 84312mCRNagpur, Maharashtra
1.4GMGGumgaon (2)X  20:53-20:53-  118.9 84302mCRNagpur, Maharashtra
1.5BTBRButi Bori (4)  21:00-21:00-  127.6 84269mCRButi Bori, Maharashtra
1.6BOKBorkhediX  21:05-21:05-  135.4 84268mCRWardha, Maharashtra
1.7SNISindi (2)  21:13-21:13-  146.9 84258mCRWardha, Maharashtra
1.8TGPTuljapur (2)  21:19-21:19-  154.8 84259mCRTuljapur, Maharashtra
1.9SLORSeloo RoadO  21:26-21:26-  164.9 84256mCRMSH3, Maharashtra
1.10VADRWarud  21:32-21:32-  172.8 84261mCRSewagram, Maharashtra
1.11SEGMSewagram Junction (5)  21:34-21:34-  176.2 84279mCRWardha, Maharashtra
1.12WRWardha Junction (4)O  21:36-21:36-  178.9 84289mCRWardha 442001, Maharashtra
1.13DAEDahegaon  21:46-21:46-  192.7 84275mCRMumbai Hwy, Maharashtra
1.14KAOTKaotha  21:53-21:53-  1101.7 84283mCRPulgaon, Maharashtra
1.15PLOPulgaon Junction (3)X  21:57-21:57-  1108.4 84273mCRPulgaon, Maharashtra
1.16TLNTalni  22:04-22:04-  1118.1 84277mCRPulgaon, Maharashtra
1.17DMNDhamangaon (2)  22:12-22:12-  1128.4 84300mCRDhamangaon, Maharashtra
1.18DIPDiporeX  22:19-22:19-  1138.6 84322mCRState Highway 243, Maharashtra
1.19CNDChandur (2)X  22:24-22:24-  1145.1 84331mCRAmravati Distt, Maharashtra
1.20MLRMalkhedX  22:33-22:33-  1158.1 84342mCRLalkhed, Maharashtra
1.21TMTTimtala  22:38-22:38-  1165.4 84350mCRAmravati, Maharashtra
1.22BDBadnera Junction (4)p22:44-22:44-  1173.8 84335mCRBadnera (Amravati) 444701, Maharashtra
1.23TKITakliXO  22:50-22:50-  1182.3 84331mCRBadnera, Maharashtra
1.24KUMKuramX  22:56-22:56-  1190.0 84308mCRAkola, Maharashtra
1.25MNDAMandura  23:01-23:01-  1197.4 84303mCRMurtizapur, Maharashtra
1.26MANAMana (2)X  23:05-23:05-  1203.5 84294mCRMANA dist Akola, Maharashtra
1.27MZRMurtizapur (3)  23:14-23:14-  1215.6 84303mCRMurtajapur, Maharashtra
1.28KTPKatepurna  23:21-23:21-  1226.0 84292mCRNational Highway 6, Maharashtra
1.29BGNBorgaon  23:28-23:28-  1234.8 84304mCRAkola, Maharashtra
1.30YADYeulkhed  23:35-23:35-  1245.6 84297mCRAkola, Maharashtra
1.31AKAkola Junction (7)  23:40-23:40-  1252.8 84284mCRAkola-444001, Maharashtra
1.32GAOGaigaon (2)  23:49-23:49-  1265.1 84301mCRAkola, Maharashtra
1.33PSParas (2)  23:55-23:55-  1272.8 84282mCRAkola, Maharashtra
1.34NGZS K Nagjihari (2)  00:01-00:01-  2282.1 84274mCRDist. Akola, Maharashtra
1.35SEGShegaon (2)X  00:07-00:07-  2290.0 84281mCRShegaon 444203, Maharashtra
1.36JMJalamb Junction (3)  00:16-00:16-  2302.4 84259mCRJalamb, Maharashtra
1.37NNNandura (2)X  00:24-00:24-  2314.6 84267mCRNandura, Maharashtra
1.38KJLKhumgaon Burti  00:30-00:30-  2322.0 84253mCRBuldhana, Maharashtra
1.39BISBiswa Bridge  00:34-00:34-  2328.3 84252mCRBuldhana, Maharashtra
1.40WADOWadoda  00:39-00:39-  2334.5 84252mCRNH 6, Maharashtra
1.41MKUMalkapur (2)  00:44-00:44-  2342.5 84252mCRMalkapur, Maharashtra
1.42KMKDKhamkhed  00:51-00:51-  2351.1 84252mCRMalkapur, Maharashtra
1.43KLHDKolhadiO  00:55-00:55-  2357.7 84278mCRMalkapur, Maharashtra
1.44BDWDBodwad (2)  00:58-00:58-  2362.1 84294mCRBodwad, Maharashtra
1.45ACGAchegaon  01:07-01:07-  2374.0 84234mCRVarangaon, Maharashtra
1.46VNAVarangaon (3)  01:11-01:11-  2379.7 84220mCRVarangaon, Maharashtra
1.47BSCNBhusaval C Cabin  01:17-01:17-  2388.2 84219mCRBhusawal, Maharashtra
2BSLBhusaval Junction (8)T01:20-01:25-5m--2392.492208mCRBhusaval 425201, Maharashtra
2.1BDIBhadli (2)X  01:33-01:33-  2405.0 92211mCRBhadli, Maharashtra
2.2TRWTarsodX  01:38-01:38-  2411.8 92206mCRAsoda - Tarsod Road, Maharashtra
2.3JLJalgaon Junction (4)X  01:41-01:41-  2416.5 92213mCRJalgaon 425001, Maharashtra
2.4SSShirsoli (2)X  01:48-01:48-  2428.3 92211mCRShirsoli, Maharashtra
2.5MWDMhasavad (3)X  01:54-01:54-  2437.6 92220mCRMhasavad, Maharashtra
2.6MYJMaheji (2)X  02:02-02:02-  2449.4 92247mCRJalgaon, Maharashtra
2.7PHQPardhande (2)X  02:07-02:07-  2456.8 92243mCRPardhande, Maharashtra
2.8PCPachora Junction (4)  02:12-02:12-  2464.2 92264mCRPachora 424201, Maharashtra
2.9GAAGalan (2)  02:19-02:19-  2474.7 92282mCRGalan, Maharashtra
2.10NGDNagardevla (2)X  02:24-02:24-  2483.1 92280mCRNagardevla, Maharashtra
2.11KJKajgaon (3)  02:28-02:28-  2490.0 92297mCRKajgaon, Maharashtra
2.12VGLVaghli (2)  02:35-02:35-  2499.7 92331mCRVaghli, Maharashtra
2.13CSNChalisgaon Junction (3)  02:41-02:41-  2509.1 92352mCRChalisgaon 424101, Maharashtra
2.14HPRHirapur (2)X  02:46-02:46-  2516.9 92373mCRHirapur, Maharashtra
2.15RHNERohini (2)  02:52-02:52-  2526.0 92422mCRRohini, Maharashtra
2.16NINaydongri (2)X  02:55-02:55-  2530.6 92427mCRNaydongri, Maharashtra
2.17PKEPimpar Khed (2)XO  03:01-03:01-  2540.4 92462mCRPimpar Khed, Maharashtra
2.18NGNNandgaon (3)  03:08-03:08-  2551.2 92476mCRNandgaon, Maharashtra
2.19PJNPanjhan (2)X  03:12-03:12-  2557.7 92514mCRPanjhan, Maharashtra
2.20HSLHisvahal (2)X  03:16-03:16-  2563.2 92540mCRHisvahal, Maharashtra
2.21PNVPanevadi (2)  03:21-03:21-  2570.9 92561mCRPanevadi, Maharashtra
2.22MMRManmad Junction (6)  03:25-03:25-  2576.6 92580mCRManmad 423104, Maharashtra
2.23SUMSummit (2)XO  03:33-03:33-  2589.0 92632mCRSummit, Maharashtra
2.24LSLasalgaon (3)X  03:41-03:41-  2601.1 92592mCRLasalgaon, Maharashtra
2.25UGNUgaon (2)X  03:47-03:47-  2611.0 92568mCRUgaon, Maharashtra
2.26NRNiphad (3)X  03:52-03:52-  2618.0 92550mCRNashik, Maharashtra
2.27KBSNKasbe Sukene (3)X  03:56-03:56-  2624.0 92548mCRKasbe Sukene, Maharashtra
2.28KWKhervadi (2)X  04:00-04:00-  2630.7 92553mCRKherwadi, Maharashtra
2.29ODHAOdha (2)X  04:05-04:05-  2637.8 92571mCRDist. Nashik, Maharashtra
2.30NKNasik Road (3)  04:12-04:12-  2649.4 92563mCRNashik 422101, Maharashtra
2.31DVLDevlali (3)  04:16-04:16-  2655.1 92561mCRDist. Nashik 422401, Maharashtra
2.32LTLahavit (1)X  04:21-04:21-  2662.7 92587mCRWadhiware, Maharashtra
2.33AVAsvali (2)  04:29-04:29-  2675.1 92578mCRAsvali, Maharashtra
2.34PIPadli (1)  04:34-04:34-  2683.6 92591mCRNational Highway 3, Maharashtra
2.35GOGhoti (2)O  04:40-04:40-  2691.9 92581mCRGhoti, Maharashtra
3IGPIgatpuri (4)O04:45-05:00-15m--2700.046589mCRIgatpuri 422403, Maharashtra
3.1TGR2Block & Catch Siding Cabin 2  05:09-05:09-  2707.1 46473mCRNational Highway 3, Maharashtra
3.2TGR3Block & Catch Siding Cabin 3  05:14-05:14-  2710.7 46365mCRNH-3, Maharashtra
3.3KSRAKasara (4)  05:19-05:19-  2714.4 46290mCRDist. Thane 421602, Maharashtra
3.4OMBOombermali  05:27-05:27-  2721.2 46248mCROombermali, Maharashtra
3.5KEKhardi (2)  05:36-05:36-  2727.7 46232mCRKhardi, Maharashtra
3.6THSThansit  05:44-05:44-  2733.9 46184mCRNational Highway 3, Maharashtra
3.7ATGAtgaon (2)O  05:52-05:52-  2739.8 46147mCRAtgaon, Maharashtra
3.8ASOAsangaon (3)  06:04-06:04-  2749.6 4677mCRDist. Thane, Maharashtra
3.9VSDVasind (2)  06:12-06:12-  2755.6 4632mCRVasind, Maharashtra
3.10KDVKhadavli (3)X  06:22-06:22-  2763.2 4623mCRKhadavli, Maharashtra
3.11TLATitwala (3)  06:32-06:32-  2770.8 4617mCRTitwala, Maharashtra
3.12ABYAmbivli (2)X  06:38-06:38-  2775.6 4622mCRAmbivli, Maharashtra
3.13SHADShahad (2)  06:42-06:42-  2778.6 4612mCRUlhasnagar, Maharashtra
3.14KYNKalyan Junction (8)  06:46-06:46-  2781.8 4610mCRKalyan 421301, Maharashtra
3.15THKThakurli (2)X  06:51-06:51-  2785.4 4614mCRThakurli, Maharashtra
3.16DIDombivli (5)  06:53-06:53-  2786.8 4611mCRDombivli, Maharashtra
3.17KOPRKopar (4)X  06:54-06:54-  2788.1 460mCRKopar, Maharashtra
3.18DIVADiva Junction (6)  07:00-07:00-  2792.4 463mCRJn Pt TNA/PNVL/KYN/BSR Diva, Maharashtra
3.19MBQMumbra (2)X  07:03-07:03-  2795.0 468mCRMumbra, Maharashtra
3.20KLVAKalva (2)X  07:09-07:09-  2799.5 465mCRKalva, Maharashtra
3.21TNAThane (10)X  07:12-07:12-  2802.0 4610mCRThane (West) 400602, Maharashtra
3.22MLNDMulund (4)  07:16-07:16-  2804.6 4612mCRMumbai, Maharashtra
3.23NHUNahur (2)  07:19-07:19-  2806.8 465mCRMumbai, Maharashtra
3.24BNDBhandup (4)  07:21-07:21-  2808.5 467mCRMumbai 400078, Maharashtra
3.25KJMGKanjur Marg (2)  07:23-07:23-  2810.3 465mCRMumbai, Maharashtra
3.26VKVikhroli (4)X  07:25-07:25-  2812.2 4610mCRMumbai, Maharashtra
3.27GCGhatkopar (4)  07:30-07:30-  2815.8 4611mCRMumbai 400086, Maharashtra
3.28VVHVidyavihar (2)X  07:32-07:32-  2817.2 468mCRMumbai, Maharashtra
3.29LTTMumbai Lokmanya Tilak Terminus (5)  07:34-07:34-  2818.5 467mCRMumbai - 400089, Maharashtra
3.30CLAKurla Junction (8)  07:35-07:35-  2819.6 468mCRMumbai, Maharashtra
3.31SINMumbai Sion (4)  07:39-07:39-  2822.2 467mCRMumbai, Maharashtra
3.32MTNMumbai Matunga (4)  07:42-07:42-  2824.9 467mCRMumbai, Maharashtra
3.33DRMumbai Dadar Central (8)  07:44-07:44-  2826.3 467mCRMumbai 400014, Maharashtra
3.34PRMumbai Parel (4)  07:45-07:45-  2827.3 466mCRMumbai, Maharashtra
3.35CRDMumbai Currey Road (2)  07:47-07:47-  2829.1 465mCRMumbai, Maharashtra
3.36CHGMumbai Chinchpokli (2)O  07:48-07:48-  2829.9 466mCRMumbai, Maharashtra
3.37BYByculla (4)  07:50-07:50-  2831.0 469mCRMumbai 400027, Maharashtra
3.38SNRDMumbai Sandhurst Road (4)  07:52-07:52-  2832.9 469mCRMumbai, Maharashtra
3.39MSDMumbai Masjid (4)  07:54-07:54-  2834.0 4610mCRMumbai, Maharashtra
4CSTMMumbai CST (18)•  07:55--182834.9-10mCRMumbai 400001, Maharashtra
Scroll to Top
Scroll to Bottom